createdAt,value
2016-10-28T00:00:26.089Z,1014.7
2016-10-28T00:01:26.105Z,1014.69
2016-10-28T00:02:26.118Z,1014.67
2016-10-28T00:03:26.138Z,1014.64
2016-10-28T00:04:26.151Z,1014.58
2016-10-28T00:05:26.174Z,1014.62
2016-10-28T00:06:26.185Z,1014.55
2016-10-28T00:07:26.205Z,1014.52
2016-10-28T00:08:26.226Z,1014.58
2016-10-28T00:09:26.239Z,1014.51
2016-10-28T00:10:26.260Z,1014.56
2016-10-28T00:11:26.270Z,1014.57
2016-10-28T00:12:26.297Z,1014.55
2016-10-28T00:13:26.310Z,1014.58
2016-10-28T00:14:26.321Z,1014.62
2016-10-28T00:15:26.344Z,1014.55
2016-10-28T00:16:26.357Z,1014.47
2016-10-28T00:17:26.374Z,1014.42
2016-10-28T00:18:26.393Z,1014.41
2016-10-28T00:19:26.407Z,1014.4
2016-10-28T00:20:26.429Z,1014.37
2016-10-28T00:21:26.445Z,1014.33
2016-10-28T00:22:26.460Z,1014.33
2016-10-28T00:23:26.479Z,1014.34
2016-10-28T00:24:26.495Z,1014.3
2016-10-28T00:25:26.511Z,1014.35
2016-10-28T00:26:26.531Z,1014.34
2016-10-28T00:27:26.548Z,1014.37
2016-10-28T00:28:26.560Z,1014.32
2016-10-28T00:29:26.580Z,1014.36
2016-10-28T00:30:26.594Z,1014.33
2016-10-28T00:31:26.613Z,1014.35
2016-10-28T00:32:26.627Z,1014.33
2016-10-28T00:33:26.647Z,1014.35
2016-10-28T00:34:26.660Z,1014.34
2016-10-28T00:35:26.674Z,1014.39
2016-10-28T00:36:26.697Z,1014.38
2016-10-28T00:37:26.714Z,1014.43
2016-10-28T00:38:26.739Z,1014.48
2016-10-28T00:39:26.744Z,1014.47
2016-10-28T00:40:26.762Z,1014.53
2016-10-28T00:41:26.780Z,1014.56
2016-10-28T00:42:26.803Z,1014.54
2016-10-28T00:43:26.816Z,1014.53
2016-10-28T00:44:26.830Z,1014.54
2016-10-28T00:45:26.852Z,1014.52
2016-10-28T00:46:26.867Z,1014.5
2016-10-28T00:47:26.884Z,1014.5
2016-10-28T00:48:26.904Z,1014.47
2016-10-28T00:49:26.924Z,1014.46
2016-10-28T00:50:26.942Z,1014.49
2016-10-28T00:51:26.954Z,1014.5
2016-10-28T00:52:26.969Z,1014.6
2016-10-28T00:53:26.985Z,1014.61
2016-10-28T00:54:27.003Z,1014.61
2016-10-28T00:55:27.020Z,1014.61
2016-10-28T00:56:27.046Z,1014.56
2016-10-28T00:57:27.056Z,1014.54
2016-10-28T00:58:27.078Z,1014.62
2016-10-28T00:59:27.096Z,1014.73
2016-10-28T01:00:27.114Z,1014.76
2016-10-28T01:01:27.125Z,1014.76
2016-10-28T01:02:27.149Z,1014.69
2016-10-28T01:03:27.163Z,1014.54
2016-10-28T01:04:27.176Z,1014.47
2016-10-28T01:05:27.195Z,1014.39
2016-10-28T01:06:27.223Z,1014.37
2016-10-28T01:07:27.229Z,1014.35
2016-10-28T01:08:27.251Z,1014.34
2016-10-28T01:09:27.265Z,1014.36
2016-10-28T01:10:27.288Z,1014.3
2016-10-28T01:11:27.297Z,1014.34
2016-10-28T01:12:27.314Z,1014.27
2016-10-28T01:13:27.337Z,1014.23
2016-10-28T01:14:27.360Z,1014.2
2016-10-28T01:15:27.371Z,1014.2
2016-10-28T01:16:27.390Z,1014.22
2016-10-28T01:17:27.406Z,1014.13
2016-10-28T01:18:27.426Z,1014.15
2016-10-28T01:19:27.439Z,1014.13
2016-10-28T01:20:27.455Z,1014.16
2016-10-28T01:21:27.471Z,1014.12
2016-10-28T01:22:27.494Z,1014.13
2016-10-28T01:23:27.508Z,1014.12
2016-10-28T01:24:27.528Z,1014.11
2016-10-28T01:25:27.547Z,1014.04
2016-10-28T01:26:27.571Z,1013.99
2016-10-28T01:27:27.578Z,1014.02
2016-10-28T01:28:27.600Z,1014.03
2016-10-28T01:29:27.612Z,1014.06
2016-10-28T01:30:27.630Z,1014.06
2016-10-28T01:31:27.649Z,1014.05
2016-10-28T01:32:27.667Z,1013.99
2016-10-28T01:33:27.684Z,1013.94
2016-10-28T01:34:27.700Z,1013.97
2016-10-28T01:35:27.720Z,1013.97
2016-10-28T01:36:27.741Z,1014.02
2016-10-28T01:37:27.756Z,1014.07
2016-10-28T01:38:27.775Z,1014.07
2016-10-28T01:39:27.792Z,1014.02
2016-10-28T01:40:27.811Z,1014.02
2016-10-28T01:41:27.821Z,1014.02
2016-10-28T01:42:27.837Z,1013.95
2016-10-28T01:43:27.862Z,1014
2016-10-28T01:44:27.879Z,1013.99
2016-10-28T01:45:27.891Z,1014.03
2016-10-28T01:46:27.910Z,1014.05
2016-10-28T01:47:27.933Z,1014.03
2016-10-28T01:48:27.949Z,1014.02
2016-10-28T01:49:27.960Z,1014.04
2016-10-28T01:50:27.983Z,1014.08
2016-10-28T01:51:28.002Z,1014.07
2016-10-28T01:52:28.016Z,1014.1
2016-10-28T01:53:28.028Z,1014.1
2016-10-28T01:54:28.052Z,1014.1
2016-10-28T01:55:28.066Z,1014.05
2016-10-28T01:56:28.088Z,1014.09
2016-10-28T01:57:28.106Z,1014.07
2016-10-28T01:58:28.120Z,1014.03
2016-10-28T01:59:28.141Z,1014.01
2016-10-28T02:00:28.151Z,1014
2016-10-28T02:01:28.171Z,1013.96
2016-10-28T02:02:28.191Z,1013.97
2016-10-28T02:03:28.203Z,1013.94
2016-10-28T02:04:28.226Z,1013.98
2016-10-28T02:05:28.247Z,1013.88
2016-10-28T02:06:28.257Z,1013.88
2016-10-28T02:07:28.276Z,1013.89
2016-10-28T02:08:28.294Z,1013.8
2016-10-28T02:09:28.312Z,1013.86
2016-10-28T02:10:28.330Z,1013.87
2016-10-28T02:11:28.344Z,1013.83
2016-10-28T02:12:28.361Z,1013.87
2016-10-28T02:13:28.377Z,1013.91
2016-10-28T02:14:28.394Z,1013.89
2016-10-28T02:15:28.410Z,1013.9
2016-10-28T02:16:28.431Z,1013.86
2016-10-28T02:17:28.448Z,1013.8
2016-10-28T02:18:28.468Z,1013.76
2016-10-28T02:19:28.488Z,1013.72
2016-10-28T02:20:28.502Z,1013.65
2016-10-28T02:21:28.523Z,1013.63
2016-10-28T02:22:28.537Z,1013.68
2016-10-28T02:23:28.551Z,1013.65
2016-10-28T02:24:28.574Z,1013.58
2016-10-28T02:25:28.588Z,1013.59
2016-10-28T02:26:28.608Z,1013.49
2016-10-28T02:27:28.629Z,1013.57
2016-10-28T02:28:28.641Z,1013.56
2016-10-28T02:29:28.660Z,1013.52
2016-10-28T02:30:28.682Z,1013.46
2016-10-28T02:31:28.692Z,1013.48
2016-10-28T02:32:28.709Z,1013.5
2016-10-28T02:33:28.731Z,1013.62
2016-10-28T02:34:28.748Z,1013.65
2016-10-28T02:35:28.767Z,1013.72
2016-10-28T02:36:28.777Z,1013.72
2016-10-28T02:37:28.799Z,1013.72
2016-10-28T02:38:28.815Z,1013.55
2016-10-28T02:39:28.835Z,1013.59
2016-10-28T02:40:28.851Z,1013.65
2016-10-28T02:41:28.874Z,1013.64
2016-10-28T02:42:28.888Z,1013.64
2016-10-28T02:43:28.904Z,1013.59
2016-10-28T02:44:28.918Z,1013.54
2016-10-28T02:45:28.941Z,1013.58
2016-10-28T02:46:28.954Z,1013.57
2016-10-28T02:47:28.976Z,1013.62
2016-10-28T02:48:28.992Z,1013.52
2016-10-28T02:49:29.007Z,1013.53
2016-10-28T02:50:29.025Z,1013.6
2016-10-28T02:51:29.042Z,1013.61
2016-10-28T02:52:29.064Z,1013.69
2016-10-28T02:53:29.081Z,1013.64
2016-10-28T02:54:29.097Z,1013.68
2016-10-28T02:55:29.113Z,1013.73
2016-10-28T02:56:29.127Z,1013.71
2016-10-28T02:57:29.150Z,1013.79
2016-10-28T02:58:29.167Z,1013.75
2016-10-28T02:59:29.182Z,1013.7
2016-10-28T03:00:29.204Z,1013.69
2016-10-28T03:01:29.213Z,1013.69
2016-10-28T03:02:29.238Z,1013.68
2016-10-28T03:03:29.255Z,1013.63
2016-10-28T03:04:29.271Z,1013.61
2016-10-28T03:05:29.291Z,1013.58
2016-10-28T03:06:29.305Z,1013.59
2016-10-28T03:07:29.326Z,1013.56
2016-10-28T03:08:29.342Z,1013.58
2016-10-28T03:09:29.359Z,1013.56
2016-10-28T03:10:29.377Z,1013.57
2016-10-28T03:11:29.394Z,1013.58
2016-10-28T03:12:29.409Z,1013.5
2016-10-28T03:13:29.430Z,1013.46
2016-10-28T03:14:29.448Z,1013.42
2016-10-28T03:15:29.466Z,1013.47
2016-10-28T03:16:29.483Z,1013.46
2016-10-28T03:17:29.497Z,1013.47
2016-10-28T03:18:29.516Z,1013.47
2016-10-28T03:19:29.531Z,1013.42
2016-10-28T03:20:29.548Z,1013.46
2016-10-28T03:21:29.566Z,1013.44
2016-10-28T03:22:29.584Z,1013.43
2016-10-28T03:23:29.605Z,1013.42
2016-10-28T03:24:29.624Z,1013.41
2016-10-28T03:25:29.640Z,1013.41
2016-10-28T03:26:29.655Z,1013.4
2016-10-28T03:27:29.672Z,1013.36
2016-10-28T03:28:29.689Z,1013.41
2016-10-28T03:29:29.712Z,1013.42
2016-10-28T03:30:29.721Z,1013.44
2016-10-28T03:31:29.745Z,1013.45
2016-10-28T03:32:29.760Z,1013.43
2016-10-28T03:33:29.777Z,1013.48
2016-10-28T03:34:29.791Z,1013.49
2016-10-28T03:35:29.814Z,1013.51
2016-10-28T03:36:29.831Z,1013.53
2016-10-28T03:37:29.847Z,1013.53
2016-10-28T03:38:29.871Z,1013.54
2016-10-28T03:39:29.885Z,1013.56
2016-10-28T03:40:29.898Z,1013.62
2016-10-28T03:41:29.915Z,1013.65
2016-10-28T03:42:29.937Z,1013.66
2016-10-28T03:43:29.952Z,1013.66
2016-10-28T03:44:29.971Z,1013.68
2016-10-28T03:45:29.989Z,1013.62
2016-10-28T03:46:30.002Z,1013.71
2016-10-28T03:47:30.022Z,1013.78
2016-10-28T03:48:30.037Z,1013.77
2016-10-28T03:49:30.055Z,1013.83
2016-10-28T03:50:30.074Z,1013.85
2016-10-28T03:51:30.095Z,1013.85
2016-10-28T03:52:30.111Z,1013.93
2016-10-28T03:53:30.121Z,1013.85
2016-10-28T03:54:30.144Z,1013.86
2016-10-28T03:55:30.159Z,1013.86
2016-10-28T03:56:30.180Z,1013.85
2016-10-28T03:57:30.200Z,1013.83
2016-10-28T03:58:30.212Z,1013.81
2016-10-28T03:59:30.233Z,1013.73
2016-10-28T04:01:30.270Z,1013.72
2016-10-28T04:02:30.299Z,1013.63
2016-10-28T04:03:30.307Z,1013.68
2016-10-28T04:04:30.323Z,1013.7
2016-10-28T04:05:30.341Z,1013.68
2016-10-28T04:06:30.360Z,1013.63
2016-10-28T04:07:30.376Z,1013.62
2016-10-28T04:08:30.394Z,1013.65
2016-10-28T04:09:30.408Z,1013.67
2016-10-28T04:10:30.431Z,1013.61
2016-10-28T04:11:30.448Z,1013.71
2016-10-28T04:12:30.471Z,1013.68
2016-10-28T04:13:30.481Z,1013.68
2016-10-28T04:14:30.495Z,1013.67
2016-10-28T04:15:30.517Z,1013.71
2016-10-28T04:16:30.535Z,1013.73
2016-10-28T04:17:30.555Z,1013.73
2016-10-28T04:18:30.567Z,1013.71
2016-10-28T04:19:30.583Z,1013.72
2016-10-28T04:20:30.615Z,1013.68
2016-10-28T04:21:30.623Z,1013.59
2016-10-28T04:22:30.639Z,1013.59
2016-10-28T04:23:30.658Z,1013.57
2016-10-28T04:24:30.674Z,1013.53
2016-10-28T04:25:30.691Z,1013.54
2016-10-28T04:26:30.712Z,1013.55
2016-10-28T04:27:30.727Z,1013.58
2016-10-28T04:28:30.749Z,1013.6
2016-10-28T04:29:30.758Z,1013.59
2016-10-28T04:30:30.787Z,1013.5
2016-10-28T04:31:30.796Z,1013.5
2016-10-28T04:32:30.812Z,1013.53
2016-10-28T04:33:30.829Z,1013.56
2016-10-28T04:34:30.847Z,1013.63
2016-10-28T04:35:30.864Z,1013.62
2016-10-28T04:36:30.885Z,1013.65
2016-10-28T04:37:30.898Z,1013.63
2016-10-28T04:38:30.914Z,1013.68
2016-10-28T04:39:30.938Z,1013.6
2016-10-28T04:40:30.946Z,1013.58
2016-10-28T04:41:30.971Z,1013.67
2016-10-28T04:42:30.992Z,1013.77
2016-10-28T04:43:31.006Z,1013.74
2016-10-28T04:44:31.017Z,1013.78
2016-10-28T04:45:31.037Z,1013.77
2016-10-28T04:46:31.069Z,1013.77
2016-10-28T04:47:31.074Z,1013.71
2016-10-28T04:48:31.095Z,1013.81
2016-10-28T04:49:31.107Z,1013.69
2016-10-28T04:50:31.137Z,1013.72
2016-10-28T04:51:31.141Z,1013.68
2016-10-28T04:52:31.154Z,1013.65
2016-10-28T04:53:31.177Z,1013.7
2016-10-28T04:54:31.207Z,1013.74
2016-10-28T04:55:31.212Z,1013.68
2016-10-28T04:56:31.231Z,1013.72
2016-10-28T04:57:31.249Z,1013.67
2016-10-28T04:58:31.266Z,1013.68
2016-10-28T04:59:31.278Z,1013.63
2016-10-28T05:00:31.299Z,1013.65
2016-10-28T05:01:31.316Z,1013.7
2016-10-28T05:02:31.334Z,1013.67
2016-10-28T05:03:31.351Z,1013.65
2016-10-28T05:04:31.371Z,1013.71
2016-10-28T05:05:31.387Z,1013.72
2016-10-28T05:06:31.399Z,1013.68
2016-10-28T05:07:31.423Z,1013.7
2016-10-28T05:08:31.439Z,1013.72
2016-10-28T05:09:31.451Z,1013.74
2016-10-28T05:10:31.473Z,1013.7
2016-10-28T05:11:31.490Z,1013.73
2016-10-28T05:12:31.503Z,1013.72
2016-10-28T05:13:31.525Z,1013.76
2016-10-28T05:14:31.543Z,1013.71
2016-10-28T05:15:31.561Z,1013.7
2016-10-28T05:16:31.574Z,1013.66
2016-10-28T05:17:31.594Z,1013.62
2016-10-28T05:18:31.607Z,1013.71
2016-10-28T05:19:31.630Z,1013.66
2016-10-28T05:20:31.644Z,1013.71
2016-10-28T05:21:31.663Z,1013.71
2016-10-28T05:22:31.679Z,1013.69
2016-10-28T05:23:31.696Z,1013.69
2016-10-28T05:24:31.709Z,1013.63
2016-10-28T05:25:31.733Z,1013.7
2016-10-28T05:26:31.751Z,1013.69
2016-10-28T05:27:31.766Z,1013.71
2016-10-28T05:28:31.786Z,1013.77
2016-10-28T05:29:31.797Z,1013.75
2016-10-28T05:30:31.819Z,1013.73
2016-10-28T05:31:31.832Z,1013.71
2016-10-28T05:32:31.849Z,1013.69
2016-10-28T05:33:31.868Z,1013.63
2016-10-28T05:34:31.882Z,1013.61
2016-10-28T05:35:31.905Z,1013.62
2016-10-28T05:36:31.923Z,1013.55
2016-10-28T05:37:31.935Z,1013.58
2016-10-28T05:38:31.957Z,1013.54
2016-10-28T05:39:31.975Z,1013.55
2016-10-28T05:40:31.992Z,1013.52
2016-10-28T05:41:32.009Z,1013.56
2016-10-28T05:42:32.026Z,1013.52
2016-10-28T05:43:32.042Z,1013.49
2016-10-28T05:44:32.058Z,1013.51
2016-10-28T05:45:32.076Z,1013.36
2016-10-28T05:46:32.091Z,1013.38
2016-10-28T05:47:32.111Z,1013.29
2016-10-28T05:48:32.131Z,1013.23
2016-10-28T05:49:32.143Z,1013.22
2016-10-28T05:50:32.160Z,1013.24
2016-10-28T05:51:32.180Z,1013.27
2016-10-28T05:52:32.193Z,1013.28
2016-10-28T05:53:32.216Z,1013.15
2016-10-28T05:54:32.232Z,1013.16
2016-10-28T05:55:32.245Z,1013.09
2016-10-28T05:56:32.269Z,1013.04
2016-10-28T05:57:32.285Z,1013.1
2016-10-28T05:58:32.304Z,1013.06
2016-10-28T05:59:32.316Z,1013.12
2016-10-28T06:00:32.335Z,1013.17
2016-10-28T06:01:32.350Z,1013.2
2016-10-28T06:02:32.373Z,1013.28
2016-10-28T06:03:32.388Z,1013.26
2016-10-28T06:04:32.406Z,1013.29
2016-10-28T06:05:32.422Z,1013.21
2016-10-28T06:06:32.443Z,1013.14
2016-10-28T06:07:32.455Z,1013.2
2016-10-28T06:08:32.472Z,1013.2
2016-10-28T06:09:32.488Z,1013.18
2016-10-28T06:10:32.519Z,1013.17
2016-10-28T06:11:32.530Z,1013.16
2016-10-28T06:12:32.544Z,1013.18
2016-10-28T06:13:32.560Z,1013.2
2016-10-28T06:14:32.573Z,1013.16
2016-10-28T06:15:32.596Z,1013.14
2016-10-28T06:16:32.613Z,1013.08
2016-10-28T06:17:32.630Z,1013.16
2016-10-28T06:18:32.645Z,1013.15
2016-10-28T06:19:32.657Z,1013.08
2016-10-28T06:20:32.678Z,1013.13
2016-10-28T06:21:32.699Z,1013.04
2016-10-28T06:22:32.715Z,1013.11
2016-10-28T06:23:32.734Z,1013.1
2016-10-28T06:24:32.751Z,1013.18
2016-10-28T06:25:32.765Z,1013.12
2016-10-28T06:26:32.784Z,1013.14
2016-10-28T06:27:32.801Z,1013.19
2016-10-28T06:28:32.819Z,1013.15
2016-10-28T06:29:32.835Z,1013.25
2016-10-28T06:30:32.863Z,1013.3
2016-10-28T06:31:32.874Z,1013.33
2016-10-28T06:32:32.885Z,1013.24
2016-10-28T06:33:32.904Z,1013.24
2016-10-28T06:34:32.923Z,1013.29
2016-10-28T06:35:32.939Z,1013.34
2016-10-28T06:36:32.961Z,1013.46
2016-10-28T06:37:32.974Z,1013.45
2016-10-28T06:38:32.990Z,1013.46
2016-10-28T06:39:33.006Z,1013.51
2016-10-28T06:40:33.029Z,1013.52
2016-10-28T06:41:33.046Z,1013.49
2016-10-28T06:42:33.063Z,1013.6
2016-10-28T06:43:33.074Z,1013.55
2016-10-28T06:44:33.095Z,1013.54
2016-10-28T06:45:33.109Z,1013.58
2016-10-28T06:46:33.142Z,1013.57
2016-10-28T06:47:33.150Z,1013.64
2016-10-28T06:48:33.164Z,1013.62
2016-10-28T06:49:33.185Z,1013.62
2016-10-28T06:50:33.202Z,1013.62
2016-10-28T06:51:33.216Z,1013.65
2016-10-28T06:52:33.235Z,1013.64
2016-10-28T06:53:33.248Z,1013.67
2016-10-28T06:54:33.274Z,1013.69
2016-10-28T06:55:33.286Z,1013.6
2016-10-28T06:56:33.311Z,1013.65
2016-10-28T06:57:33.321Z,1013.67
2016-10-28T06:58:33.340Z,1013.77
2016-10-28T06:59:33.356Z,1013.8
2016-10-28T07:00:33.375Z,1013.8
2016-10-28T07:01:33.389Z,1013.77
2016-10-28T07:02:33.408Z,1013.75
2016-10-28T07:03:33.428Z,1013.74
2016-10-28T07:04:33.445Z,1013.77
2016-10-28T07:05:33.462Z,1013.84
2016-10-28T07:06:33.475Z,1013.92
2016-10-28T07:07:33.495Z,1013.95
2016-10-28T07:08:33.508Z,1013.94
2016-10-28T07:09:33.533Z,1014
2016-10-28T07:10:33.551Z,1014.01
2016-10-28T07:11:33.564Z,1014.06
2016-10-28T07:12:33.579Z,1014.07
2016-10-28T07:13:33.602Z,1014.1
2016-10-28T07:14:33.613Z,1014.18
2016-10-28T07:15:33.634Z,1014.16
2016-10-28T07:16:33.653Z,1014.14
2016-10-28T07:17:33.668Z,1014.19
2016-10-28T07:18:33.685Z,1014.26
2016-10-28T07:19:33.703Z,1014.21
2016-10-28T07:20:33.722Z,1014.15
2016-10-28T07:21:33.736Z,1014.13
2016-10-28T07:22:33.752Z,1014.12
2016-10-28T07:23:33.778Z,1014.15
2016-10-28T07:24:33.792Z,1014.1
2016-10-28T07:25:33.809Z,1014.12
2016-10-28T07:26:33.831Z,1014.03
2016-10-28T07:27:33.846Z,1014.04
2016-10-28T07:28:33.858Z,1013.96
2016-10-28T07:29:33.880Z,1013.96
2016-10-28T07:30:33.907Z,1013.92
2016-10-28T07:31:33.918Z,1013.99
2016-10-28T07:32:33.943Z,1013.88
2016-10-28T07:33:33.947Z,1013.9
2016-10-28T07:34:33.969Z,1013.85
2016-10-28T07:35:33.981Z,1013.84
2016-10-28T07:36:33.998Z,1013.87
2016-10-28T07:37:34.022Z,1013.93
2016-10-28T07:38:34.039Z,1013.95
2016-10-28T07:39:34.056Z,1013.96
2016-10-28T07:40:34.073Z,1013.99
2016-10-28T07:41:34.085Z,1014.01
2016-10-28T07:42:34.112Z,1014.05
2016-10-28T07:43:34.128Z,1014.01
2016-10-28T07:44:34.146Z,1014.04
2016-10-28T07:45:34.157Z,1014
2016-10-28T07:46:34.175Z,1014.11
2016-10-28T07:47:34.199Z,1014.08
2016-10-28T07:48:34.208Z,1014.11
2016-10-28T07:49:34.234Z,1014.1
2016-10-28T07:50:34.247Z,1014.07
2016-10-28T07:51:34.266Z,1014.06
2016-10-28T07:52:34.302Z,1014.06
2016-10-28T07:53:34.302Z,1014.05
2016-10-28T07:54:34.314Z,1014.02
2016-10-28T07:55:34.334Z,1013.98
2016-10-28T07:56:34.351Z,1014.01
2016-10-28T07:57:34.373Z,1014
2016-10-28T07:58:34.390Z,1014.01
2016-10-28T07:59:34.406Z,1014.09
2016-10-28T08:00:34.425Z,1014.15
2016-10-28T08:01:34.437Z,1014.14
2016-10-28T08:02:34.467Z,1014.17
2016-10-28T08:03:34.478Z,1014.14
2016-10-28T08:04:34.495Z,1014.14
2016-10-28T08:05:34.507Z,1014.11
2016-10-28T08:06:34.539Z,1014.19
2016-10-28T08:07:34.545Z,1014.12
2016-10-28T08:08:34.571Z,1014.12
2016-10-28T08:09:34.584Z,1014.12
2016-10-28T08:10:34.611Z,1014.16
2016-10-28T08:11:34.616Z,1014.13
2016-10-28T08:12:34.632Z,1014.17
2016-10-28T08:13:34.654Z,1014.05
2016-10-28T08:14:34.679Z,1014.01
2016-10-28T08:15:34.690Z,1014.06
2016-10-28T08:16:34.711Z,1014
2016-10-28T08:17:34.723Z,1014.07
2016-10-28T08:18:34.744Z,1014.1
2016-10-28T08:19:34.755Z,1014.04
2016-10-28T08:20:34.777Z,1014.03
2016-10-28T08:21:34.796Z,1014.08
2016-10-28T08:22:34.813Z,1014.14
2016-10-28T08:23:34.829Z,1014.16
2016-10-28T08:24:34.844Z,1014.13
2016-10-28T08:25:34.861Z,1014.13
2016-10-28T08:26:34.883Z,1014.08
2016-10-28T08:27:34.898Z,1014.06
2016-10-28T08:28:34.917Z,1014.06
2016-10-28T08:29:34.937Z,1014.02
2016-10-28T08:30:34.962Z,1014.03
2016-10-28T08:31:34.966Z,1014.08
2016-10-28T08:32:34.989Z,1014.07
2016-10-28T08:33:35.004Z,1014.08
2016-10-28T08:34:35.036Z,1014.11
2016-10-28T08:35:35.041Z,1014.05
2016-10-28T08:36:35.057Z,1014.09
2016-10-28T08:37:35.071Z,1014.06
2016-10-28T08:38:35.103Z,1014.06
2016-10-28T08:39:35.114Z,1014.06
2016-10-28T08:40:35.140Z,1014.04
2016-10-28T08:41:35.145Z,1014.14
2016-10-28T08:42:35.175Z,1014.05
2016-10-28T08:43:35.178Z,1014.06
2016-10-28T08:44:35.204Z,1014.07
2016-10-28T08:45:35.214Z,1014.11
2016-10-28T08:46:35.247Z,1014.1
2016-10-28T08:47:35.249Z,1014.1
2016-10-28T08:48:35.271Z,1014.12
2016-10-28T08:49:35.288Z,1014.14
2016-10-28T08:50:35.305Z,1014.14
2016-10-28T08:51:35.326Z,1014.13
2016-10-28T08:52:35.343Z,1014.1
2016-10-28T08:53:35.354Z,1014.13
2016-10-28T08:54:35.380Z,1014.16
2016-10-28T08:55:35.395Z,1014.16
2016-10-28T08:56:35.419Z,1014.19
2016-10-28T08:57:35.427Z,1014.17
2016-10-28T08:58:35.453Z,1014.18
2016-10-28T08:59:35.470Z,1014.16
2016-10-28T09:00:35.486Z,1014.13
2016-10-28T09:01:35.501Z,1014.12
2016-10-28T09:02:35.523Z,1014.16
2016-10-28T09:03:35.537Z,1014.17
2016-10-28T09:04:35.557Z,1014.15
2016-10-28T09:05:35.576Z,1014.11
2016-10-28T09:06:35.592Z,1014.11
2016-10-28T09:07:35.613Z,1014.23
2016-10-28T09:08:35.623Z,1014.28
2016-10-28T09:09:35.646Z,1014.34
2016-10-28T09:10:35.675Z,1014.28
2016-10-28T09:11:35.680Z,1014.33
2016-10-28T09:12:35.696Z,1014.29
2016-10-28T09:13:35.721Z,1014.4
2016-10-28T09:14:35.737Z,1014.39
2016-10-28T09:15:35.754Z,1014.41
2016-10-28T09:16:35.772Z,1014.36
2016-10-28T09:17:35.793Z,1014.41
2016-10-28T09:18:35.805Z,1014.45
2016-10-28T09:19:35.831Z,1014.48
2016-10-28T09:20:35.845Z,1014.44
2016-10-28T09:21:35.861Z,1014.47
2016-10-28T09:22:35.882Z,1014.5
2016-10-28T09:23:35.898Z,1014.43
2016-10-28T09:24:35.919Z,1014.34
2016-10-28T09:25:35.934Z,1014.44
2016-10-28T09:26:35.957Z,1014.44
2016-10-28T09:27:35.974Z,1014.37
2016-10-28T09:28:35.995Z,1014.45
2016-10-28T09:29:36.007Z,1014.44
2016-10-28T09:30:36.028Z,1014.41
2016-10-28T09:31:36.041Z,1014.33
2016-10-28T09:32:36.058Z,1014.34
2016-10-28T09:33:36.079Z,1014.2
2016-10-28T09:34:36.108Z,1014.27
2016-10-28T09:35:36.121Z,1014.31
2016-10-28T09:36:36.136Z,1014.29
2016-10-28T09:37:36.149Z,1014.27
2016-10-28T09:38:36.176Z,1014.27
2016-10-28T09:39:36.188Z,1014.19
2016-10-28T09:40:36.210Z,1014.2
2016-10-28T09:41:36.231Z,1014.21
2016-10-28T09:42:36.258Z,1014.25
2016-10-28T09:43:36.265Z,1014.22
2016-10-28T09:44:36.281Z,1014.3
2016-10-28T09:45:36.297Z,1014.23
2016-10-28T09:46:36.317Z,1014.28
2016-10-28T09:47:36.336Z,1014.31
2016-10-28T09:48:36.356Z,1014.35
2016-10-28T09:49:36.373Z,1014.44
2016-10-28T09:50:36.396Z,1014.5
2016-10-28T09:51:36.415Z,1014.51
2016-10-28T09:52:36.429Z,1014.62
2016-10-28T09:53:36.444Z,1014.66
2016-10-28T09:54:36.466Z,1014.66
2016-10-28T09:55:36.487Z,1014.74
2016-10-28T09:56:36.500Z,1014.71
2016-10-28T09:57:36.520Z,1014.78
2016-10-28T09:58:36.541Z,1014.71
2016-10-28T09:59:36.559Z,1014.75
2016-10-28T10:00:36.583Z,1014.65
2016-10-28T10:01:36.591Z,1014.64
2016-10-28T10:02:36.614Z,1014.62
2016-10-28T10:03:36.630Z,1014.62
2016-10-28T10:04:36.651Z,1014.59
2016-10-28T10:05:36.666Z,1014.55
2016-10-28T10:06:36.685Z,1014.44
2016-10-28T10:07:36.701Z,1014.45
2016-10-28T10:08:36.725Z,1014.43
2016-10-28T10:09:36.737Z,1014.4
2016-10-28T10:10:36.758Z,1014.44
2016-10-28T10:11:36.778Z,1014.42
2016-10-28T10:12:36.795Z,1014.45
2016-10-28T10:13:36.807Z,1014.46
2016-10-28T10:14:36.829Z,1014.55
2016-10-28T10:15:36.850Z,1014.52
2016-10-28T10:16:36.864Z,1014.52
2016-10-28T10:17:36.883Z,1014.6
2016-10-28T10:18:36.902Z,1014.59
2016-10-28T10:19:36.921Z,1014.7
2016-10-28T10:20:36.933Z,1014.66
2016-10-28T10:21:36.955Z,1014.61
2016-10-28T10:22:36.976Z,1014.58
2016-10-28T10:23:36.991Z,1014.59
2016-10-28T10:24:37.005Z,1014.61
2016-10-28T10:25:37.026Z,1014.54
2016-10-28T10:26:37.042Z,1014.58
2016-10-28T10:27:37.064Z,1014.63
2016-10-28T10:28:37.085Z,1014.65
2016-10-28T10:29:37.097Z,1014.7
2016-10-28T10:30:37.128Z,1014.68
2016-10-28T10:31:37.136Z,1014.69
2016-10-28T10:32:37.157Z,1014.62
2016-10-28T10:33:37.171Z,1014.61
2016-10-28T10:34:37.186Z,1014.63
2016-10-28T10:35:37.212Z,1014.57
2016-10-28T10:36:37.224Z,1014.61
2016-10-28T10:37:37.246Z,1014.6
2016-10-28T10:38:37.261Z,1014.66
2016-10-28T10:39:37.280Z,1014.64
2016-10-28T10:40:37.311Z,1014.64
2016-10-28T10:41:37.321Z,1014.65
2016-10-28T10:42:37.335Z,1014.7
2016-10-28T10:43:37.350Z,1014.66
2016-10-28T10:44:37.371Z,1014.69
2016-10-28T10:45:37.398Z,1014.73
2016-10-28T10:46:37.409Z,1014.79
2016-10-28T10:47:37.425Z,1014.86
2016-10-28T10:48:37.443Z,1014.8
2016-10-28T10:49:37.460Z,1014.84
2016-10-28T10:50:37.479Z,1014.79
2016-10-28T10:51:37.502Z,1014.78
2016-10-28T10:52:37.517Z,1014.81
2016-10-28T10:53:37.535Z,1014.79
2016-10-28T10:54:37.550Z,1014.74
2016-10-28T10:55:37.574Z,1014.74
2016-10-28T10:56:37.592Z,1014.77
2016-10-28T10:57:37.610Z,1014.74
2016-10-28T10:58:37.629Z,1014.84
2016-10-28T10:59:37.647Z,1014.81
2016-10-28T11:00:37.671Z,1014.8
2016-10-28T11:01:37.676Z,1014.71
2016-10-28T11:02:37.697Z,1014.65
2016-10-28T11:03:37.719Z,1014.66
2016-10-28T11:04:37.746Z,1014.6
2016-10-28T11:05:37.750Z,1014.62
2016-10-28T11:06:37.769Z,1014.61
2016-10-28T11:07:37.792Z,1014.57
2016-10-28T11:08:37.815Z,1014.57
2016-10-28T11:09:37.826Z,1014.63
2016-10-28T11:10:37.855Z,1014.58
2016-10-28T11:11:37.863Z,1014.53
2016-10-28T11:12:37.881Z,1014.56
2016-10-28T11:13:37.893Z,1014.51
2016-10-28T11:14:37.919Z,1014.54
2016-10-28T11:15:37.934Z,1014.57
2016-10-28T11:16:37.951Z,1014.57
2016-10-28T11:17:37.974Z,1014.65
2016-10-28T11:18:37.999Z,1014.67
2016-10-28T11:19:38.010Z,1014.66
2016-10-28T11:20:38.027Z,1014.68
2016-10-28T11:21:38.041Z,1014.63
2016-10-28T11:22:38.071Z,1014.66
2016-10-28T11:23:38.078Z,1014.65
2016-10-28T11:24:38.098Z,1014.71
2016-10-28T11:25:38.111Z,1014.68
2016-10-28T11:26:38.138Z,1014.65
2016-10-28T11:27:38.150Z,1014.59
2016-10-28T11:28:38.174Z,1014.63
2016-10-28T11:29:38.190Z,1014.56
2016-10-28T11:30:38.208Z,1014.69
2016-10-28T11:31:38.227Z,1014.66
2016-10-28T11:32:38.243Z,1014.63
2016-10-28T11:33:38.258Z,1014.65
2016-10-28T11:34:38.284Z,1014.68
2016-10-28T11:35:38.297Z,1014.68
2016-10-28T11:36:38.327Z,1014.75
2016-10-28T11:37:38.335Z,1014.78
2016-10-28T11:38:38.354Z,1014.79
2016-10-28T11:39:38.372Z,1014.81
2016-10-28T11:40:38.395Z,1014.74
2016-10-28T11:41:38.410Z,1014.72
2016-10-28T11:42:38.422Z,1014.76
2016-10-28T11:43:38.448Z,1014.72
2016-10-28T11:44:38.466Z,1014.69
2016-10-28T11:45:38.477Z,1014.72
2016-10-28T11:46:38.498Z,1014.83
2016-10-28T11:47:38.519Z,1014.8
2016-10-28T11:48:38.537Z,1014.82
2016-10-28T11:49:38.555Z,1014.78
2016-10-28T11:50:38.570Z,1014.78
2016-10-28T11:51:38.593Z,1014.83
2016-10-28T11:52:38.607Z,1014.72
2016-10-28T11:53:38.629Z,1014.78
2016-10-28T11:54:38.644Z,1014.78
2016-10-28T11:55:38.663Z,1014.79
2016-10-28T11:56:38.680Z,1014.79
2016-10-28T11:57:38.699Z,1014.73
2016-10-28T11:58:38.719Z,1014.68
2016-10-28T11:59:38.736Z,1014.68
2016-10-28T12:00:38.751Z,1014.62
2016-10-28T12:01:38.771Z,1014.71
2016-10-28T12:02:38.789Z,1014.74
2016-10-28T12:03:38.807Z,1014.77
2016-10-28T12:04:38.826Z,1014.75
2016-10-28T12:05:38.840Z,1014.73
2016-10-28T12:06:38.864Z,1014.56
2016-10-28T12:07:38.878Z,1014.57
2016-10-28T12:08:38.907Z,1014.5
2016-10-28T12:09:38.920Z,1014.51